Terminal Aerodrome Forecast
Issued by NWS

Home | Current Version | Previous Version | Text Only | Print | Product List | Glossary On
Versions: 1 2 3 4 5 6 7 8 9 10 11 12 13 14 15 16 17 18
000
FTUS44 KLZK 300500
TAFADF
TAF
KADF 300534Z 3006/0106 00000KT 5SM BR VCFG SKC
      TEMPO 3006/3008 1SM BR
     FM300800 00000KT 4SM BR VCFG SKC
      TEMPO 3010/3012 1/2SM FG
     FM301500 16005KT P6SM SCT250
     FM301800 17008KT P6SM SCT050 SCT250
     FM010000 16003KT P6SM SCT250=

USA.gov is the U.S. government's official web portal to all federal, state and local government web resources and services.